This is the latest recevied weather packets stored in our database for station/object SP4MAZ-13. If no packets are shown the sender has not sent any weather packets the latest 1 day(s).
| Time | Temp. | Humidity | Pressure | Rain* | Wind** | Luminosity | Snow |
|---|---|---|---|---|---|---|---|
| 1778093474 | 12.22° C | 99% | 2147.4 hPa | - | - | - | - |
| 1778093170 | 12.22° C | 99% | 2147.4 hPa | - | - | - | - |
| 1778092563 | 12.22° C | 99% | 2147.4 hPa | - | - | - | - |
| 1778091352 | 13.33° C | 95% | 2147.4 hPa | - | - | - | - |
| 1778090442 | 14.44° C | 90% | 2147.4 hPa | - | - | - | - |
| 1778089837 | 15° C | 83% | 2147.4 hPa | - | - | - | - |
| 1778089230 | 15.56° C | 81% | 2147.4 hPa | - | - | - | - |
| 1778088320 | 16.67° C | 72% | 2147.4 hPa | - | - | - | - |
| 1778088019 | 17.22° C | 63% | 2147.4 hPa | - | - | - | - |
| 1778086204 | 18.33° C | 63% | 2147.4 hPa | - | - | - | - |
| 1778084990 | 18.33° C | 63% | 2147.4 hPa | - | - | - | - |
| 1778084687 | 18.89° C | 61% | 2147.4 hPa | - | - | - | - |
| 1778084080 | 20.56° C | 56% | 2147.4 hPa | - | - | - | - |
| 1778083779 | 21.11° C | 53% | 2147.4 hPa | - | - | - | - |
| 1778082568 | 21.11° C | 58% | 2147.4 hPa | - | - | - | - |
| 1778082265 | 20.56° C | 58% | 2147.4 hPa | - | - | - | - |
| 1778081961 | 20.56° C | 59% | 2147.4 hPa | - | - | - | - |
| 1778081053 | 20.56° C | 60% | 2147.4 hPa | - | - | - | - |
| 1778080446 | 19.44° C | 67% | 2147.4 hPa | - | - | - | - |
| 1778079535 | 19.44° C | 68% | 2147.4 hPa | - | - | - | - |
| 1778078325 | 18.89° C | 65% | 2147.4 hPa | - | - | - | - |
| 1778077718 | 20° C | 60% | 2147.4 hPa | - | - | - | - |
| 1778077417 | 19.44° C | 58% | 2147.4 hPa | - | - | - | - |
| 1778077113 | 19.44° C | 59% | 2147.4 hPa | - | - | - | - |
| 1778076810 | 20° C | 59% | 2147.4 hPa | - | - | - | - |
* Rain since midnight (hover to see other rain measurements)
** Current wind speed in m/s (hover to see current wind gust speed)